Time;durP1;ratioP1;P1;durP2;ratioP2;P2;SDS_P1;SDS_P2;PMS_P1;PMS_P2;Temp;Humidity;BMP_temperature;BMP_pressure;BME280_temperature;BME280_humidity;BME280_pressure;Samples;Min_cycle;Max_cycle;Signal;HPM_P1;HPM_P2
2022/01/04 00:01:22;;;;;;;19.67;12.07;;;7.20;99.90;;;;;;4999193;28;20088;-82
2022/01/04 00:03:49;;;;;;;16.40;11.45;;;7.20;99.90;;;;;;4982584;28;20029;-82
2022/01/04 00:06:14;;;;;;;18.85;11.20;;;7.30;99.90;;;;;;4999301;28;20042;-81
2022/01/04 00:08:40;;;;;;;21.05;11.63;;;7.30;99.90;;;;;;4982989;28;20470;-82
2022/01/04 00:11:41;;;;;;;16.52;11.02;;;7.30;99.90;;;;;;5016779;28;20136;-82
2022/01/04 00:13:54;;;;;;;16.90;11.23;;;7.30;99.90;;;;;;4997260;28;20061;-81
2022/01/04 00:16:20;;;;;;;19.30;12.27;;;7.40;99.90;;;;;;4999085;28;20049;-82
2022/01/04 00:18:46;;;;;;;21.20;12.95;;;7.40;99.90;;;;;;4999065;28;20022;-83
2022/01/04 00:21:12;;;;;;;23.77;13.82;;;7.50;99.90;;;;;;4982689;28;20117;-82
2022/01/04 00:23:38;;;;;;;24.60;15.57;;;7.40;99.90;;;;;;4981873;28;20076;-82
2022/01/04 00:26:04;;;;;;;20.30;14.18;;;7.50;99.90;;;;;;4982512;28;20609;-82
2022/01/04 00:28:30;;;;;;;26.20;14.02;;;7.50;99.90;;;;;;4998523;28;20034;-82
2022/01/04 00:31:04;;;;;;;28.05;15.27;;;7.50;99.90;;;;;;4998412;28;20054;-81
2022/01/04 00:33:29;;;;;;;23.88;14.18;;;7.60;99.90;;;;;;4997586;28;20033;-82
2022/01/04 00:36:20;;;;;;;22.63;14.20;;;7.60;99.90;;;;;;4998263;28;20044;-82
2022/01/04 00:38:46;;;;;;;23.57;14.73;;;7.60;99.90;;;;;;4982206;28;20033;-82
2022/01/04 00:41:11;;;;;;;26.45;14.98;;;7.60;99.90;;;;;;4981974;28;20033;-82
2022/01/04 00:43:46;;;;;;;25.73;15.57;;;7.60;99.90;;;;;;4997840;28;20125;-81
2022/01/04 00:46:16;;;;;;;24.63;15.38;;;7.60;99.90;;;;;;4997335;28;20117;-81
2022/01/04 00:51:27;;;;;;;25.13;15.55;;;7.70;99.90;;;;;;5015816;28;20497;-81
2022/01/04 00:53:53;;;;;;;24.95;15.48;;;7.60;99.90;;;;;;4981493;28;20080;-82
2022/01/04 00:56:18;;;;;;;38.33;16.52;;;7.70;99.90;;;;;;4998374;28;20056;-82
2022/01/04 00:58:44;;;;;;;28.55;16.60;;;7.70;99.90;;;;;;4998383;28;20026;-82
2022/01/04 01:01:10;;;;;;;23.35;16.10;;;7.70;99.90;;;;;;4998322;28;20037;-82
2022/01/04 01:03:35;;;;;;;24.13;16.00;;;7.70;99.90;;;;;;4981749;28;20120;-82
2022/01/04 01:06:01;;;;;;;25.25;16.67;;;7.70;99.90;;;;;;4981783;28;20037;-81
2022/01/04 01:08:27;;;;;;;25.40;15.75;;;7.70;99.90;;;;;;4997912;28;20092;-82
2022/01/04 01:10:52;;;;;;;31.25;16.65;;;7.70;99.90;;;;;;4998107;28;20065;-82
2022/01/04 01:13:18;;;;;;;29.38;16.55;;;7.70;99.90;;;;;;4997683;28;20022;-82
2022/01/04 01:15:45;;;;;;;26.25;15.65;;;7.80;99.90;;;;;;4981823;28;20033;-83
2022/01/04 01:18:16;;;;;;;23.30;15.18;;;7.80;99.90;;;;;;4998156;28;20061;-82
2022/01/04 01:20:42;;;;;;;23.58;15.80;;;7.80;99.90;;;;;;4981954;28;20448;-82
2022/01/04 01:23:08;;;;;;;29.42;15.43;;;7.70;99.90;;;;;;4997186;28;20029;-82
2022/01/04 01:25:34;;;;;;;26.17;14.68;;;7.70;99.90;;;;;;5015211;28;20040;-82
2022/01/04 01:27:59;;;;;;;25.20;16.20;;;7.80;99.90;;;;;;4981727;28;20034;-82
2022/01/04 01:30:27;;;;;;;23.75;14.45;;;7.80;99.90;;;;;;4997565;28;20058;-82
2022/01/04 01:32:53;;;;;;;24.23;14.52;;;7.80;99.90;;;;;;4997498;28;20092;-82
2022/01/04 01:35:19;;;;;;;20.33;14.82;;;7.80;99.90;;;;;;4997498;28;20481;-82
2022/01/04 01:37:46;;;;;;;24.52;14.45;;;7.80;99.90;;;;;;4997760;28;20030;-82
2022/01/04 01:40:12;;;;;;;18.55;12.77;;;7.80;99.90;;;;;;4997504;28;20040;-82
2022/01/04 01:42:39;;;;;;;18.15;11.98;;;7.80;99.90;;;;;;4997357;28;20478;-82
2022/01/04 01:45:06;;;;;;;17.67;11.63;;;7.80;99.90;;;;;;5014469;28;20084;-82
2022/01/04 01:47:31;;;;;;;22.40;13.55;;;7.80;99.90;;;;;;5014690;28;20440;-82
2022/01/04 01:49:57;;;;;;;20.48;12.77;;;7.80;99.90;;;;;;4981015;28;20072;-82
2022/01/04 01:52:23;;;;;;;18.80;13.00;;;7.80;99.90;;;;;;4981278;28;20061;-82
2022/01/04 01:54:49;;;;;;;22.95;14.40;;;7.80;99.90;;;;;;4996694;28;20034;-82
2022/01/04 01:58:05;;;;;;;20.00;15.10;;;7.80;99.90;;;;;;4980823;28;20033;-82
2022/01/04 02:00:31;;;;;;;25.77;14.63;;;7.80;99.90;;;;;;5014541;28;20474;-82
2022/01/04 02:02:57;;;;;;;22.15;14.15;;;7.80;99.90;;;;;;4980717;28;20030;-82
2022/01/04 02:05:23;;;;;;;23.90;13.50;;;7.80;99.90;;;;;;4996508;28;20033;-81
2022/01/04 02:07:49;;;;;;;21.00;13.40;;;7.80;99.90;;;;;;4980741;28;20125;-82
2022/01/04 02:10:15;;;;;;;28.98;14.48;;;7.80;99.90;;;;;;4996764;28;20060;-82
2022/01/04 02:12:46;;;;;;;20.55;13.75;;;7.70;99.90;;;;;;4980577;28;20046;-82
2022/01/04 02:15:17;;;;;;;23.40;12.90;;;7.80;99.90;;;;;;4996559;28;20129;-82
2022/01/04 02:17:44;;;;;;;20.05;12.77;;;7.80;99.90;;;;;;4980652;28;20125;-82
2022/01/04 02:20:10;;;;;;;23.55;13.70;;;7.70;99.90;;;;;;4996525;28;20029;-82
2022/01/04 02:22:36;;;;;;;27.85;14.10;;;7.70;99.90;;;;;;4979782;28;20030;-82
2022/01/04 02:25:03;;;;;;;20.10;13.57;;;7.70;99.90;;;;;;4996431;28;20140;-81
2022/01/04 02:27:28;;;;;;;23.13;13.27;;;7.70;99.90;;;;;;4980621;28;20130;-82
2022/01/04 02:29:54;;;;;;;25.35;13.10;;;7.80;99.90;;;;;;4980061;28;20069;-81
2022/01/04 02:32:20;;;;;;;26.42;13.38;;;7.80;99.90;;;;;;4980379;28;20414;-82
2022/01/04 02:34:51;;;;;;;17.90;12.32;;;7.70;99.90;;;;;;4979913;28;20033;-82
2022/01/04 02:37:21;;;;;;;19.30;11.75;;;7.80;99.90;;;;;;4996211;28;20034;-81
2022/01/04 02:39:48;;;;;;;19.95;11.73;;;7.70;99.90;;;;;;4996316;28;20030;-82
2022/01/04 02:42:14;;;;;;;16.50;10.50;;;7.70;99.90;;;;;;4996062;28;20030;-81
2022/01/04 02:44:40;;;;;;;17.20;10.48;;;7.70;99.90;;;;;;4979703;28;20033;-81
2022/01/04 02:47:06;;;;;;;17.67;10.02;;;7.70;99.90;;;;;;4996251;28;20041;-81
2022/01/04 02:49:32;;;;;;;12.88;8.85;;;7.70;99.90;;;;;;4995931;28;20038;-82
2022/01/04 02:51:57;;;;;;;13.43;8.98;;;7.70;99.90;;;;;;4996274;28;20069;-81
2022/01/04 02:54:23;;;;;;;13.02;8.82;;;7.70;99.90;;;;;;4995749;28;20133;-82
2022/01/04 02:56:49;;;;;;;197.43;73.95;;;7.70;99.90;;;;;;4996116;28;20080;-81
2022/01/04 02:59:15;;;;;;;15.00;8.75;;;7.70;99.90;;;;;;4995735;28;20026;-82
2022/01/04 03:01:41;;;;;;;14.30;8.07;;;7.80;99.90;;;;;;5028669;28;20061;-82
2022/01/04 03:04:07;;;;;;;12.52;8.18;;;7.70;99.90;;;;;;4995623;28;20113;-82
2022/01/04 03:06:34;;;;;;;11.07;7.35;;;7.70;99.90;;;;;;4979668;28;20449;-82
2022/01/04 03:09:01;;;;;;;11.05;8.00;;;7.70;99.90;;;;;;4979218;28;20042;-82
2022/01/04 03:12:00;;;;;;;11.45;6.88;;;7.70;99.90;;;;;;4979609;28;20037;-82
2022/01/04 03:14:26;;;;;;;7.85;6.07;;;7.70;99.90;;;;;;4995251;28;20038;-82
2022/01/04 03:16:52;;;;;;;11.13;7.30;;;7.70;99.90;;;;;;5012083;28;20524;-82
2022/01/04 03:19:19;;;;;;;11.45;7.07;;;7.70;99.90;;;;;;4995798;28;20129;-81
2022/01/04 03:21:45;;;;;;;13.43;7.32;;;7.60;99.90;;;;;;5012947;28;20025;-82
2022/01/04 03:24:12;;;;;;;13.43;7.00;;;7.60;99.90;;;;;;4979245;28;20036;-82
2022/01/04 03:26:38;;;;;;;11.40;7.78;;;7.60;99.90;;;;;;4979311;28;20046;-82
2022/01/04 03:29:06;;;;;;;8.35;6.30;;;7.60;99.90;;;;;;4995258;28;20045;-82
2022/01/04 03:31:33;;;;;;;10.40;7.32;;;7.60;99.90;;;;;;4995588;28;20033;-82
2022/01/04 03:33:59;;;;;;;12.13;8.02;;;7.60;99.90;;;;;;5012691;28;20489;-82
2022/01/04 03:36:25;;;;;;;13.82;7.85;;;7.60;99.90;;;;;;4979442;28;20053;-82
2022/01/04 03:38:55;;;;;;;12.57;7.07;;;7.70;99.90;;;;;;5011872;28;20041;-81
2022/01/04 03:41:23;;;;;;;8.90;7.35;;;7.60;99.90;;;;;;4995395;28;20034;-82
2022/01/04 03:43:50;;;;;;;13.75;7.07;;;7.60;99.90;;;;;;4995024;28;20080;-82
2022/01/04 03:46:16;;;;;;;16.17;8.75;;;7.60;99.90;;;;;;5012921;28;20120;-81
2022/01/04 03:48:42;;;;;;;13.25;9.65;;;7.60;99.90;;;;;;4994772;28;20359;-82
2022/01/04 03:51:08;;;;;;;11.07;8.23;;;7.60;99.90;;;;;;5012845;28;20476;-82
2022/01/04 03:53:34;;;;;;;12.80;8.73;;;7.60;99.90;;;;;;5012475;28;20141;-82
2022/01/04 03:56:00;;;;;;;16.95;9.32;;;7.60;99.90;;;;;;4978886;28;20037;-81
2022/01/04 03:58:26;;;;;;;170.10;67.07;;;7.60;99.90;;;;;;4979018;28;20037;-82
2022/01/04 04:00:52;;;;;;;16.90;9.70;;;7.60;99.90;;;;;;4979160;28;20029;-81
2022/01/04 04:03:18;;;;;;;16.00;9.68;;;7.60;99.90;;;;;;4978741;28;20048;-82
2022/01/04 04:05:44;;;;;;;15.52;9.63;;;7.60;99.90;;;;;;5012696;28;20101;-82
2022/01/04 04:08:10;;;;;;;14.77;10.30;;;7.50;99.90;;;;;;4978805;28;20030;-81
2022/01/04 04:10:36;;;;;;;16.20;11.50;;;7.60;99.90;;;;;;4995004;28;20037;-81
2022/01/04 04:13:02;;;;;;;17.10;10.10;;;7.60;99.90;;;;;;4995033;28;20085;-82
2022/01/04 04:15:28;;;;;;;20.40;10.13;;;7.50;99.90;;;;;;4978929;28;20125;-82
2022/01/04 04:17:54;;;;;;;12.93;9.23;;;7.60;99.90;;;;;;4995143;28;20675;-81
2022/01/04 04:20:20;;;;;;;17.00;9.60;;;7.60;99.90;;;;;;4994901;28;20061;-81
2022/01/04 04:22:47;;;;;;;12.85;8.43;;;7.60;99.90;;;;;;4998055;28;20814;-80
2022/01/04 04:25:13;;;;;;;13.15;9.43;;;7.60;99.90;;;;;;5015945;28;20091;-82
2022/01/04 04:27:39;;;;;;;12.40;8.93;;;7.50;99.90;;;;;;4998322;28;20065;-82
2022/01/04 04:30:17;;;;;;;15.63;10.00;;;7.50;99.90;;;;;;4982128;28;20064;-81
2022/01/04 04:32:42;;;;;;;17.50;9.98;;;7.50;99.90;;;;;;4998397;28;20057;-81
2022/01/04 04:35:08;;;;;;;12.60;8.25;;;7.60;99.90;;;;;;5015663;28;20048;-81
2022/01/04 04:37:34;;;;;;;12.52;9.13;;;7.50;99.90;;;;;;5014850;28;20034;-81
2022/01/04 04:40:21;;;;;;;11.40;7.95;;;7.50;99.90;;;;;;4998483;28;20713;-81
2022/01/04 04:42:47;;;;;;;11.75;8.02;;;7.50;99.90;;;;;;4998269;28;20046;-81
2022/01/04 04:45:13;;;;;;;11.60;7.65;;;7.50;99.90;;;;;;4981820;28;20079;-81
2022/01/04 04:47:39;;;;;;;10.48;7.38;;;7.50;99.90;;;;;;4998004;28;20393;-82
2022/01/04 04:50:08;;;;;;;11.15;7.75;;;7.50;99.90;;;;;;4997897;28;20045;-81
2022/01/04 04:52:34;;;;;;;9.57;6.47;;;7.50;99.90;;;;;;5015571;28;20025;-82
2022/01/04 04:54:59;;;;;;;13.23;7.05;;;7.50;99.90;;;;;;4998041;28;20042;-81
2022/01/04 04:57:25;;;;;;;7.97;5.55;;;7.50;99.90;;;;;;5015390;28;20115;-81
2022/01/04 04:59:51;;;;;;;7.80;4.90;;;7.50;99.90;;;;;;4998011;28;20053;-81
2022/01/04 05:02:16;;;;;;;9.30;5.78;;;7.50;99.90;;;;;;4981645;28;20702;-81
2022/01/04 05:04:42;;;;;;;7.93;5.07;;;7.50;99.90;;;;;;5015105;28;20030;-81
2022/01/04 05:07:08;;;;;;;8.27;5.47;;;7.50;99.90;;;;;;4997712;28;20026;-81
2022/01/04 05:09:33;;;;;;;7.90;4.95;;;7.50;99.90;;;;;;4997886;28;20068;-82
2022/01/04 05:12:11;;;;;;;9.60;6.65;;;7.50;99.90;;;;;;4981517;28;20099;-81
2022/01/04 05:14:39;;;;;;;8.73;4.90;;;7.60;99.90;;;;;;4997443;28;20536;-82
2022/01/04 05:17:05;;;;;;;6.88;4.70;;;7.50;99.90;;;;;;4981284;28;20083;-81
2022/01/04 05:19:30;;;;;;;6.63;4.55;;;7.50;99.90;;;;;;4997530;28;20033;-81
2022/01/04 05:21:56;;;;;;;5.80;4.55;;;7.50;99.90;;;;;;4997378;28;20664;-81
2022/01/04 05:24:22;;;;;;;8.93;4.88;;;7.60;99.90;;;;;;4997123;28;20061;-81
2022/01/04 05:26:47;;;;;;;5.95;4.07;;;7.50;99.90;;;;;;4997347;28;20041;-81
2022/01/04 05:29:13;;;;;;;7.50;4.22;;;7.60;99.90;;;;;;4997301;28;20108;-81
2022/01/04 05:31:39;;;;;;;6.93;4.70;;;7.60;99.90;;;;;;4980663;28;20026;-81
2022/01/04 05:34:04;;;;;;;5.80;4.25;;;7.60;99.90;;;;;;5014405;28;20540;-82
2022/01/04 05:36:30;;;;;;;10.18;5.32;;;7.60;99.90;;;;;;4997080;28;20536;-81
2022/01/04 05:38:56;;;;;;;6.30;4.20;;;7.60;99.90;;;;;;4980500;28;20470;-81
2022/01/04 05:41:21;;;;;;;6.60;4.50;;;7.60;99.90;;;;;;4996746;28;20026;-81
2022/01/04 05:43:47;;;;;;;11.00;6.10;;;7.60;99.90;;;;;;4980426;28;20124;-81
2022/01/04 05:46:15;;;;;;;5.95;4.57;;;7.70;99.90;;;;;;4980582;28;20061;-81
2022/01/04 05:48:41;;;;;;;5.63;4.00;;;7.70;99.90;;;;;;4980733;28;20065;-82
2022/01/04 05:51:22;;;;;;;8.57;4.60;;;7.70;99.90;;;;;;4996978;28;20064;-81
2022/01/04 05:53:47;;;;;;;6.10;4.53;;;7.70;99.90;;;;;;4980160;28;20108;-81
2022/01/04 05:56:13;;;;;;;5.03;4.22;;;7.70;99.90;;;;;;4996743;28;20034;-81
2022/01/04 05:58:39;;;;;;;6.72;4.72;;;7.70;99.90;;;;;;5014380;28;20480;-81
2022/01/04 06:01:05;;;;;;;7.85;4.90;;;7.70;99.90;;;;;;5014364;28;20029;-81
2022/01/04 06:03:30;;;;;;;6.72;4.45;;;7.70;99.90;;;;;;5014110;28;20393;-81
2022/01/04 06:05:56;;;;;;;38.33;13.68;;;7.70;99.90;;;;;;4980494;28;20034;-82
2022/01/04 06:08:23;;;;;;;7.25;4.50;;;7.80;99.90;;;;;;4980374;28;20037;-81
2022/01/04 06:10:51;;;;;;;7.15;4.90;;;7.70;99.90;;;;;;4980044;28;20030;-81
2022/01/04 06:16:02;;;;;;;6.65;4.53;;;7.80;99.90;;;;;;5014077;28;20070;-81
2022/01/04 06:18:28;;;;;;;9.65;6.55;;;7.80;99.90;;;;;;4996470;28;20036;-82
2022/01/04 06:20:56;;;;;;;11.05;6.53;;;7.80;99.90;;;;;;4996078;28;20021;-81
2022/01/04 06:23:22;;;;;;;7.20;5.53;;;7.80;99.90;;;;;;4979740;28;20092;-82
2022/01/04 06:25:48;;;;;;;10.98;7.22;;;7.80;99.90;;;;;;4995948;28;20030;-81
2022/01/04 06:28:13;;;;;;;7.43;4.80;;;7.80;99.90;;;;;;4996055;28;20044;-81
2022/01/04 06:30:39;;;;;;;14.45;9.25;;;7.90;99.90;;;;;;4995939;28;20037;-81
2022/01/04 06:33:06;;;;;;;8.20;5.85;;;7.80;99.90;;;;;;4979666;28;20405;-82
2022/01/04 06:35:33;;;;;;;13.98;7.65;;;7.90;99.90;;;;;;4979483;28;20068;-81
2022/01/04 06:37:59;;;;;;;8.07;6.25;;;7.90;99.90;;;;;;4995807;28;20492;-81
2022/01/04 06:40:25;;;;;;;7.80;6.32;;;7.90;99.90;;;;;;4979674;28;20030;-81
2022/01/04 06:42:50;;;;;;;10.32;7.45;;;7.90;99.90;;;;;;4979601;28;20022;-81
2022/01/04 06:45:16;;;;;;;13.07;6.82;;;7.90;99.90;;;;;;5011272;28;20030;-82
2022/01/04 06:47:42;;;;;;;9.73;5.80;;;7.90;99.90;;;;;;5013346;28;20038;-82
2022/01/04 06:50:18;;;;;;;7.30;5.93;;;7.90;99.90;;;;;;4995997;28;20523;-81
2022/01/04 06:52:44;;;;;;;12.65;6.85;;;7.90;99.90;;;;;;4979461;28;20065;-82
2022/01/04 06:55:10;;;;;;;8.50;7.00;;;7.90;99.90;;;;;;4979377;28;20061;-82
2022/01/04 06:57:36;;;;;;;6.40;5.28;;;7.90;99.90;;;;;;4996247;28;20081;-81
2022/01/04 07:00:04;;;;;;;8.15;5.53;;;7.90;99.90;;;;;;4995780;28;20080;-81
2022/01/04 07:02:30;;;;;;;7.72;5.72;;;8.00;99.90;;;;;;4995223;28;20659;-82
2022/01/04 07:04:56;;;;;;;6.05;5.05;;;8.00;99.90;;;;;;4995178;28;20038;-82
2022/01/04 07:07:23;;;;;;;4.03;3.63;;;8.00;99.90;;;;;;4995701;28;20821;-81
2022/01/04 07:09:49;;;;;;;4.50;3.85;;;8.00;99.90;;;;;;5012996;28;20089;-82
2022/01/04 07:12:16;;;;;;;6.38;4.43;;;8.00;99.90;;;;;;4979432;28;20038;-81
2022/01/04 07:14:41;;;;;;;7.88;4.93;;;8.00;99.90;;;;;;4995474;28;20033;-81
2022/01/04 07:17:07;;;;;;;6.82;5.55;;;8.10;99.90;;;;;;4995368;28;20042;-82
2022/01/04 07:19:33;;;;;;;6.07;4.93;;;8.10;99.90;;;;;;4979264;28;20029;-82
2022/01/04 07:21:59;;;;;;;7.45;5.28;;;8.10;99.90;;;;;;4979232;28;20022;-83
2022/01/04 07:24:25;;;;;;;10.30;6.22;;;8.10;99.90;;;;;;4978988;28;20041;-83
2022/01/04 07:26:51;;;;;;;14.82;7.70;;;8.10;99.90;;;;;;4979241;28;20393;-83
2022/01/04 07:29:17;;;;;;;9.95;7.38;;;8.10;99.90;;;;;;5013021;28;20049;-83
2022/01/04 07:31:46;;;;;;;9.18;7.75;;;8.10;99.90;;;;;;4979421;28;20491;-82
2022/01/04 07:34:12;;;;;;;11.07;7.93;;;8.10;99.90;;;;;;4981026;28;20076;-82
2022/01/04 07:36:38;;;;;;;10.13;9.00;;;8.10;99.90;;;;;;4995163;28;20731;-83
2022/01/04 07:39:03;;;;;;;10.05;8.48;;;8.10;99.90;;;;;;4997200;28;20037;-83
2022/01/04 07:41:29;;;;;;;15.68;8.23;;;8.20;99.90;;;;;;4993802;28;20367;-83
2022/01/04 07:43:55;;;;;;;12.90;8.93;;;8.20;99.90;;;;;;4981061;28;20029;-82
2022/01/04 07:46:23;;;;;;;10.73;9.63;;;8.20;99.90;;;;;;4983118;28;20044;-82
2022/01/04 07:48:50;;;;;;;11.57;9.55;;;8.30;99.90;;;;;;4995501;28;20034;-82
2022/01/04 07:51:16;;;;;;;11.35;9.88;;;8.30;99.90;;;;;;4979421;28;20086;-82
2022/01/04 07:53:42;;;;;;;16.10;11.75;;;8.30;99.90;;;;;;5012746;28;20124;-82
2022/01/04 07:56:08;;;;;;;10.05;8.95;;;8.30;99.90;;;;;;5015556;28;20117;-82
2022/01/04 07:59:29;;;;;;;13.50;12.00;;;8.30;99.90;;;;;;4982332;28;20026;-82
2022/01/04 08:01:55;;;;;;;9.98;8.98;;;8.30;99.90;;;;;;4998481;28;20040;-82
2022/01/04 08:04:21;;;;;;;11.50;9.63;;;8.30;99.90;;;;;;4984668;28;20116;-81
2022/01/04 08:06:47;;;;;;;11.65;9.68;;;8.40;99.90;;;;;;4984623;28;20869;-82
2022/01/04 08:09:12;;;;;;;11.25;9.27;;;8.30;99.90;;;;;;4984398;28;20042;-82
2022/01/04 08:11:38;;;;;;;12.82;9.32;;;8.40;99.90;;;;;;4982662;28;20389;-82
2022/01/04 08:14:04;;;;;;;10.45;9.07;;;8.30;99.90;;;;;;4998665;28;20095;-82
2022/01/04 08:16:29;;;;;;;12.40;10.40;;;8.30;99.90;;;;;;4998764;28;20033;-81
2022/01/04 08:18:55;;;;;;;13.85;11.00;;;8.40;99.90;;;;;;5000829;28;20053;-82
2022/01/04 08:21:27;;;;;;;8.48;7.57;;;8.40;99.90;;;;;;5000788;28;20069;-83
2022/01/04 08:23:52;;;;;;;14.65;10.45;;;8.40;99.90;;;;;;4998697;28;20056;-81
2022/01/04 08:26:19;;;;;;;11.70;8.57;;;8.40;99.90;;;;;;4998333;28;20116;-83
2022/01/04 08:28:45;;;;;;;12.27;8.68;;;8.40;99.90;;;;;;4982253;28;20120;-83
2022/01/04 08:31:11;;;;;;;11.38;10.18;;;8.50;99.90;;;;;;4998426;28;20375;-82
2022/01/04 08:33:37;;;;;;;13.75;12.35;;;8.50;99.90;;;;;;4998236;28;20073;-82
2022/01/04 08:36:04;;;;;;;10.77;9.18;;;8.50;99.90;;;;;;4998423;28;20034;-83
2022/01/04 08:38:29;;;;;;;12.65;10.02;;;8.50;99.90;;;;;;4981909;28;20040;-81
2022/01/04 08:40:55;;;;;;;9.65;8.13;;;8.50;99.90;;;;;;4982252;28;20466;-81
2022/01/04 08:43:21;;;;;;;13.73;7.60;;;8.60;99.90;;;;;;4998448;28;20030;-83
2022/01/04 08:45:47;;;;;;;12.05;9.55;;;8.60;99.90;;;;;;4982210;28;20030;-82
2022/01/04 08:48:13;;;;;;;7.93;6.85;;;8.60;99.90;;;;;;4998500;28;20132;-81
2022/01/04 08:50:39;;;;;;;11.23;7.82;;;8.60;99.90;;;;;;4998463;28;20046;-81
2022/01/04 08:53:08;;;;;;;10.38;8.13;;;8.60;99.90;;;;;;4981839;28;20049;-82
2022/01/04 08:55:34;;;;;;;11.48;9.30;;;8.60;99.90;;;;;;4981958;28;20045;-82
2022/01/04 08:58:00;;;;;;;13.70;8.90;;;8.60;99.90;;;;;;4982156;28;20021;-82
2022/01/04 09:00:26;;;;;;;8.02;6.55;;;8.60;99.90;;;;;;4981885;28;20120;-82
2022/01/04 09:02:51;;;;;;;12.85;8.40;;;8.60;99.90;;;;;;4998147;28;20524;-82
2022/01/04 09:05:17;;;;;;;13.32;10.30;;;8.70;99.90;;;;;;4997998;28;20026;-83
2022/01/04 09:07:42;;;;;;;11.10;7.90;;;8.60;99.90;;;;;;4997406;28;20030;-82
2022/01/04 09:10:08;;;;;;;11.57;9.20;;;8.70;99.90;;;;;;4981763;28;20029;-82
2022/01/04 09:15:28;;;;;;;8.68;6.72;;;8.70;99.90;;;;;;4997906;28;20034;-82
2022/01/04 09:20:42;;;;;;;9.32;6.97;;;8.70;99.90;;;;;;4996379;28;20385;-82
2022/01/04 09:23:07;;;;;;;10.73;7.50;;;8.70;99.90;;;;;;4981284;28;20136;-83
2022/01/04 09:25:33;;;;;;;10.52;7.30;;;8.70;99.90;;;;;;4981351;28;20030;-82
2022/01/04 09:27:59;;;;;;;9.65;6.93;;;8.70;99.90;;;;;;4981367;28;20030;-83
2022/01/04 09:30:24;;;;;;;11.13;8.52;;;8.80;99.90;;;;;;4981405;28;20030;-83
2022/01/04 09:32:52;;;;;;;13.00;6.97;;;8.80;99.90;;;;;;4981268;28;20053;-83
2022/01/04 09:35:18;;;;;;;9.63;6.93;;;8.80;99.90;;;;;;4997473;28;20065;-83
2022/01/04 09:37:44;;;;;;;9.75;6.82;;;8.80;99.90;;;;;;4997488;28;20474;-83
2022/01/04 09:40:10;;;;;;;9.82;6.90;;;8.80;99.90;;;;;;4981396;28;20067;-83
2022/01/04 09:42:37;;;;;;;11.60;7.95;;;8.80;99.90;;;;;;4997388;28;20049;-82
2022/01/04 09:45:12;;;;;;;11.27;7.35;;;8.80;99.90;;;;;;5030037;28;20045;-83
2022/01/04 09:47:38;;;;;;;11.35;8.50;;;8.80;99.90;;;;;;4997493;28;20030;-82
2022/01/04 09:50:10;;;;;;;15.32;9.30;;;8.80;99.90;;;;;;4997230;28;20033;-83
2022/01/04 09:52:42;;;;;;;12.88;7.72;;;8.90;99.90;;;;;;5015058;28;20041;-82
2022/01/04 09:55:10;;;;;;;10.90;8.15;;;8.90;99.90;;;;;;4980603;28;20091;-83
2022/01/04 09:57:36;;;;;;;9.55;7.57;;;8.80;99.90;;;;;;4996942;28;20418;-83
2022/01/04 10:00:03;;;;;;;12.15;7.80;;;8.90;99.90;;;;;;4980777;28;20029;-83
2022/01/04 10:02:31;;;;;;;12.10;6.43;;;8.90;99.90;;;;;;4997615;28;20037;-83
2022/01/04 10:05:16;;;;;;;14.85;7.50;;;8.90;99.90;;;;;;4997041;28;20816;-83
2022/01/04 10:07:42;;;;;;;10.63;7.45;;;8.90;99.90;;;;;;4980916;28;20036;-83
2022/01/04 10:10:13;;;;;;;10.75;7.53;;;8.90;99.90;;;;;;5014695;28;20058;-83
2022/01/04 10:12:59;;;;;;;9.90;7.78;;;8.90;99.90;;;;;;4980887;28;20030;-84
2022/01/04 10:15:43;;;;;;;10.20;7.45;;;9.00;99.90;;;;;;4980557;28;20088;-83
2022/01/04 10:18:26;;;;;;;11.95;7.47;;;9.00;99.90;;;;;;4980224;28;20033;-83
2022/01/04 10:21:09;;;;;;;11.27;7.45;;;9.00;99.90;;;;;;4996836;28;20062;-83
2022/01/04 10:23:45;;;;;;;10.07;7.68;;;9.00;99.90;;;;;;4980293;28;20113;-82
2022/01/04 10:26:11;;;;;;;15.13;7.05;;;9.00;99.90;;;;;;4996705;28;20033;-83
2022/01/04 10:28:40;;;;;;;11.38;6.82;;;9.00;99.90;;;;;;4980596;28;20042;-83
2022/01/04 10:31:09;;;;;;;8.35;6.03;;;9.00;99.90;;;;;;4996594;28;20042;-83
2022/01/04 10:33:36;;;;;;;9.13;6.85;;;9.00;99.90;;;;;;4996305;28;20080;-82
2022/01/04 10:36:14;;;;;;;10.15;6.20;;;9.00;99.90;;;;;;4980799;28;20037;-82
2022/01/04 10:38:43;;;;;;;10.40;7.13;;;9.00;99.90;;;;;;4980471;28;20033;-83
2022/01/04 10:41:23;;;;;;;9.88;6.38;;;9.00;99.90;;;;;;4996658;28;20026;-82
2022/01/04 10:43:51;;;;;;;8.13;5.47;;;9.00;99.90;;;;;;4979964;28;20516;-83
2022/01/04 10:46:39;;;;;;;8.38;5.63;;;9.00;99.90;;;;;;4979876;28;20091;-82
2022/01/04 10:49:15;;;;;;;10.32;6.65;;;9.00;99.90;;;;;;4979659;28;20136;-83
2022/01/04 10:51:41;;;;;;;10.70;6.45;;;9.10;99.90;;;;;;4979521;28;20030;-83
2022/01/04 10:54:07;;;;;;;10.02;6.28;;;9.00;99.90;;;;;;5013157;28;20042;-83
2022/01/04 10:56:37;;;;;;;7.43;5.60;;;9.10;99.90;;;;;;4996054;28;20045;-83
2022/01/04 10:59:08;;;;;;;11.02;6.25;;;9.10;99.90;;;;;;4996344;28;20022;-83
2022/01/04 11:01:47;;;;;;;;;;;9.10;99.90;;;;;;4996493;28;20121;-82
2022/01/04 11:04:20;;;;;;;9.65;5.85;;;9.10;99.90;;;;;;5012087;28;19916;-83
2022/01/04 11:06:48;;;;;;;7.90;5.15;;;9.10;99.90;;;;;;5013625;28;20037;-82
2022/01/04 11:09:14;;;;;;;8.10;5.47;;;9.10;99.90;;;;;;5013137;28;20038;-83
2022/01/04 11:11:40;;;;;;;5.63;4.57;;;9.10;99.90;;;;;;5028433;28;20649;-83
2022/01/04 11:14:08;;;;;;;6.78;5.28;;;9.10;99.90;;;;;;4978855;28;20620;-83
2022/01/04 11:16:33;;;;;;;9.90;5.97;;;9.10;99.90;;;;;;4995616;28;20029;-83
2022/01/04 11:19:01;;;;;;;8.82;5.90;;;9.10;99.90;;;;;;5011796;28;20029;-83
2022/01/04 11:21:33;;;;;;;8.45;5.25;;;9.10;99.90;;;;;;4979260;28;20535;-82
2022/01/04 11:24:03;;;;;;;10.55;6.13;;;9.10;99.90;;;;;;4979076;28;20540;-83
2022/01/04 11:26:29;;;;;;;6.70;4.03;;;9.10;99.90;;;;;;4979659;28;20034;-84
2022/01/04 11:28:55;;;;;;;6.95;3.88;;;9.10;99.90;;;;;;4995960;28;20112;-83
2022/01/04 11:32:01;;;;;;;6.18;4.60;;;9.10;99.90;;;;;;4982865;28;20367;-84
2022/01/04 11:34:48;;;;;;;7.60;4.85;;;9.10;99.90;;;;;;4999711;28;20042;-82
2022/01/04 11:37:19;;;;;;;5.13;4.07;;;9.10;99.90;;;;;;4983800;28;20030;-84
2022/01/04 11:39:45;;;;;;;7.82;5.35;;;9.00;99.90;;;;;;4999914;28;20160;-84
2022/01/04 11:42:31;;;;;;;6.28;4.75;;;9.00;99.90;;;;;;4999161;28;20044;-83
2022/01/04 11:44:59;;;;;;;10.02;5.88;;;9.00;99.90;;;;;;4983038;28;20461;-84
2022/01/04 11:47:32;;;;;;;11.23;6.07;;;9.00;99.90;;;;;;4999540;28;20034;-83
2022/01/04 11:50:07;;;;;;;9.27;5.55;;;9.00;99.90;;;;;;4999781;28;20064;-84
2022/01/04 11:52:49;;;;;;;5.53;3.53;;;9.00;99.90;;;;;;4983374;28;20034;-84
2022/01/04 11:55:18;;;;;;;6.93;3.63;;;9.00;99.90;;;;;;5016870;28;20038;-83
2022/01/04 11:57:43;;;;;;;3.38;2.88;;;8.90;99.90;;;;;;4983274;28;20116;-84
2022/01/04 12:00:10;;;;;;;5.47;2.33;;;8.80;99.90;;;;;;4983460;28;20117;-84
2022/01/04 12:02:41;;;;;;;4.88;2.60;;;8.50;99.90;;;;;;5002123;28;20067;-84
2022/01/04 12:05:30;;;;;;;3.35;2.10;;;8.30;99.90;;;;;;4983002;28;20030;-84
2022/01/04 12:08:13;;;;;;;2.03;1.83;;;8.30;99.90;;;;;;4999412;28;20040;-84
2022/01/04 12:10:40;;;;;;;2.00;1.80;;;8.10;99.90;;;;;;4999239;28;20504;-84
2022/01/04 12:13:10;;;;;;;1.90;1.70;;;8.10;99.90;;;;;;4984636;28;20478;-84
2022/01/04 12:15:36;;;;;;;1.42;1.10;;;8.00;99.90;;;;;;4999516;28;20030;-83
2022/01/04 12:18:23;;;;;;;1.25;1.08;;;7.90;99.90;;;;;;4999189;28;20423;-84
2022/01/04 12:20:52;;;;;;;1.55;1.10;;;7.80;99.90;;;;;;4982759;28;20030;-84
2022/01/04 12:23:44;;;;;;;2.72;1.60;;;7.40;99.90;;;;;;4982812;28;20038;-83
2022/01/04 12:26:13;;;;;;;0.80;0.70;;;6.50;99.90;;;;;;4990212;28;20046;-83
2022/01/04 12:28:40;;;;;;;2.75;0.50;;;6.10;99.90;;;;;;4986816;28;20038;-83
2022/01/04 12:31:19;;;;;;;0.80;0.70;;;5.80;99.90;;;;;;4982721;28;20018;-83
2022/01/04 12:33:51;;;;;;;1.08;0.95;;;5.70;99.90;;;;;;4982340;28;20523;-84
2022/01/04 12:36:35;;;;;;;2.20;1.20;;;5.60;99.90;;;;;;4982649;28;20481;-84
2022/01/04 12:39:06;;;;;;;1.23;1.00;;;5.40;99.90;;;;;;5014997;28;20117;-83
2022/01/04 12:41:32;;;;;;;;;;;5.40;99.90;;;;;;4981855;28;20525;-83
2022/01/04 12:43:59;;;;;;;0.40;0.40;;;5.40;99.90;;;;;;4998484;28;19944;-83
2022/01/04 12:46:29;;;;;;;0.52;0.50;;;5.40;99.90;;;;;;4984419;28;20489;-83
2022/01/04 12:49:02;;;;;;;0.90;0.90;;;5.40;99.90;;;;;;4982629;28;20029;-83
2022/01/04 12:51:34;;;;;;;0.60;0.50;;;5.30;99.90;;;;;;5000667;28;20389;-83
2022/01/04 12:54:02;;;;;;;;;;;5.30;99.90;;;;;;5000836;28;20044;-85
2022/01/04 12:56:29;;;;;;;1.15;0.90;;;5.20;99.90;;;;;;5016892;28;20323;-83
2022/01/04 12:58:58;;;;;;;2.22;1.70;;;5.20;99.90;;;;;;4982219;28;20508;-83
2022/01/04 13:01:29;;;;;;;1.65;1.40;;;5.20;99.90;;;;;;4982057;28;20031;-83
2022/01/04 13:03:56;;;;;;;1.15;0.93;;;5.10;99.90;;;;;;4998074;28;20037;-83
2022/01/04 13:06:23;;;;;;;1.00;0.80;;;5.10;99.90;;;;;;4981968;28;20036;-84